sensor_id;sensor_type;location;lat;lon;timestamp;P1;durP1;ratioP1;P2;durP2;ratioP2
14096;SDS011;7125;48.106;11.544;2022-12-18T00:02:19;38.43;;;22.87;;
14096;SDS011;7125;48.106;11.544;2022-12-18T00:04:47;34.27;;;20.83;;
14096;SDS011;7125;48.106;11.544;2022-12-18T00:07:13;33.70;;;20.50;;
14096;SDS011;7125;48.106;11.544;2022-12-18T00:09:40;40.10;;;22.80;;
14096;SDS011;7125;48.106;11.544;2022-12-18T00:12:07;41.27;;;25.27;;
14096;SDS011;7125;48.106;11.544;2022-12-18T00:14:34;40.37;;;22.87;;
14096;SDS011;7125;48.106;11.544;2022-12-18T00:17:03;43.47;;;23.20;;
14096;SDS011;7125;48.106;11.544;2022-12-18T00:19:30;42.07;;;22.73;;
14096;SDS011;7125;48.106;11.544;2022-12-18T00:21:57;41.20;;;23.90;;
14096;SDS011;7125;48.106;11.544;2022-12-18T00:24:24;37.00;;;21.17;;
14096;SDS011;7125;48.106;11.544;2022-12-18T00:26:51;34.63;;;20.50;;
14096;SDS011;7125;48.106;11.544;2022-12-18T00:29:18;39.60;;;23.17;;
14096;SDS011;7125;48.106;11.544;2022-12-18T00:31:45;39.93;;;22.63;;
14096;SDS011;7125;48.106;11.544;2022-12-18T00:34:13;40.40;;;21.40;;
14096;SDS011;7125;48.106;11.544;2022-12-18T00:36:40;39.07;;;21.40;;
14096;SDS011;7125;48.106;11.544;2022-12-18T00:39:07;39.13;;;21.77;;
14096;SDS011;7125;48.106;11.544;2022-12-18T00:41:36;43.47;;;24.80;;
14096;SDS011;7125;48.106;11.544;2022-12-18T00:44:21;35.23;;;22.13;;
14096;SDS011;7125;48.106;11.544;2022-12-18T00:46:49;44.17;;;20.40;;
14096;SDS011;7125;48.106;11.544;2022-12-18T00:49:18;37.80;;;21.57;;
14096;SDS011;7125;48.106;11.544;2022-12-18T00:51:46;36.90;;;20.30;;
14096;SDS011;7125;48.106;11.544;2022-12-18T00:54:13;32.10;;;19.50;;
14096;SDS011;7125;48.106;11.544;2022-12-18T00:56:40;35.30;;;18.93;;
14096;SDS011;7125;48.106;11.544;2022-12-18T00:59:07;37.27;;;21.77;;
14096;SDS011;7125;48.106;11.544;2022-12-18T01:01:34;35.47;;;20.60;;
14096;SDS011;7125;48.106;11.544;2022-12-18T01:04:03;34.73;;;21.17;;
14096;SDS011;7125;48.106;11.544;2022-12-18T01:06:31;35.20;;;21.77;;
14096;SDS011;7125;48.106;11.544;2022-12-18T01:08:58;39.93;;;21.37;;
14096;SDS011;7125;48.106;11.544;2022-12-18T01:11:25;36.63;;;22.07;;
14096;SDS011;7125;48.106;11.544;2022-12-18T01:13:52;35.77;;;20.03;;
14096;SDS011;7125;48.106;11.544;2022-12-18T01:16:21;33.23;;;20.67;;
14096;SDS011;7125;48.106;11.544;2022-12-18T01:18:50;32.90;;;19.37;;
14096;SDS011;7125;48.106;11.544;2022-12-18T01:21:18;34.17;;;19.97;;
14096;SDS011;7125;48.106;11.544;2022-12-18T01:23:47;30.80;;;19.10;;
14096;SDS011;7125;48.106;11.544;2022-12-18T01:26:18;34.23;;;19.53;;
14096;SDS011;7125;48.106;11.544;2022-12-18T01:28:45;32.43;;;20.00;;
14096;SDS011;7125;48.106;11.544;2022-12-18T01:31:13;37.03;;;20.47;;
14096;SDS011;7125;48.106;11.544;2022-12-18T01:33:45;35.13;;;20.20;;
14096;SDS011;7125;48.106;11.544;2022-12-18T01:36:16;31.60;;;20.27;;
14096;SDS011;7125;48.106;11.544;2022-12-18T01:38:45;31.83;;;18.87;;
14096;SDS011;7125;48.106;11.544;2022-12-18T01:41:14;30.60;;;18.27;;
14096;SDS011;7125;48.106;11.544;2022-12-18T01:43:47;35.57;;;19.97;;
14096;SDS011;7125;48.106;11.544;2022-12-18T01:46:18;34.20;;;19.97;;
14096;SDS011;7125;48.106;11.544;2022-12-18T01:48:47;31.13;;;19.70;;
14096;SDS011;7125;48.106;11.544;2022-12-18T01:51:16;37.00;;;20.50;;
14096;SDS011;7125;48.106;11.544;2022-12-18T01:53:43;38.43;;;20.53;;
14096;SDS011;7125;48.106;11.544;2022-12-18T01:56:13;33.90;;;18.57;;
14096;SDS011;7125;48.106;11.544;2022-12-18T01:58:45;35.03;;;19.03;;
14096;SDS011;7125;48.106;11.544;2022-12-18T02:01:16;35.10;;;19.83;;
14096;SDS011;7125;48.106;11.544;2022-12-18T02:03:43;36.77;;;21.10;;
14096;SDS011;7125;48.106;11.544;2022-12-18T02:06:13;33.20;;;20.70;;
14096;SDS011;7125;48.106;11.544;2022-12-18T02:08:50;32.13;;;19.60;;
14096;SDS011;7125;48.106;11.544;2022-12-18T02:11:31;30.90;;;20.23;;
14096;SDS011;7125;48.106;11.544;2022-12-18T02:14:10;39.90;;;21.97;;
14096;SDS011;7125;48.106;11.544;2022-12-18T02:16:45;40.07;;;21.53;;
14096;SDS011;7125;48.106;11.544;2022-12-18T02:19:36;39.43;;;21.97;;
14096;SDS011;7125;48.106;11.544;2022-12-18T02:22:13;38.17;;;21.77;;
14096;SDS011;7125;48.106;11.544;2022-12-18T02:24:56;36.50;;;20.00;;
14096;SDS011;7125;48.106;11.544;2022-12-18T02:27:32;45.37;;;24.10;;
14096;SDS011;7125;48.106;11.544;2022-12-18T02:30:04;38.73;;;22.60;;
14096;SDS011;7125;48.106;11.544;2022-12-18T02:32:33;42.63;;;22.57;;
14096;SDS011;7125;48.106;11.544;2022-12-18T02:35:03;47.43;;;22.03;;
14096;SDS011;7125;48.106;11.544;2022-12-18T02:37:32;49.13;;;25.20;;
14096;SDS011;7125;48.106;11.544;2022-12-18T02:40:04;52.10;;;23.40;;
14096;SDS011;7125;48.106;11.544;2022-12-18T02:42:36;40.27;;;23.17;;
14096;SDS011;7125;48.106;11.544;2022-12-18T02:45:06;47.13;;;23.30;;
14096;SDS011;7125;48.106;11.544;2022-12-18T02:47:36;50.20;;;23.60;;
14096;SDS011;7125;48.106;11.544;2022-12-18T02:50:07;45.13;;;23.20;;
14096;SDS011;7125;48.106;11.544;2022-12-18T02:52:42;51.00;;;24.23;;
14096;SDS011;7125;48.106;11.544;2022-12-18T02:55:23;47.03;;;24.67;;
14096;SDS011;7125;48.106;11.544;2022-12-18T02:58:07;41.10;;;24.87;;
14096;SDS011;7125;48.106;11.544;2022-12-18T03:00:41;41.47;;;23.50;;
14096;SDS011;7125;48.106;11.544;2022-12-18T03:03:16;42.97;;;24.03;;
14096;SDS011;7125;48.106;11.544;2022-12-18T03:05:51;40.00;;;23.60;;
14096;SDS011;7125;48.106;11.544;2022-12-18T03:08:20;45.20;;;25.60;;
14096;SDS011;7125;48.106;11.544;2022-12-18T03:10:51;43.47;;;23.07;;
14096;SDS011;7125;48.106;11.544;2022-12-18T03:13:28;46.33;;;24.33;;
14096;SDS011;7125;48.106;11.544;2022-12-18T03:15:59;47.40;;;23.93;;
14096;SDS011;7125;48.106;11.544;2022-12-18T03:18:29;46.50;;;22.80;;
14096;SDS011;7125;48.106;11.544;2022-12-18T03:20:59;43.40;;;24.73;;
14096;SDS011;7125;48.106;11.544;2022-12-18T03:23:34;42.60;;;23.90;;
14096;SDS011;7125;48.106;11.544;2022-12-18T03:26:10;46.33;;;23.37;;
14096;SDS011;7125;48.106;11.544;2022-12-18T03:28:42;48.10;;;25.93;;
14096;SDS011;7125;48.106;11.544;2022-12-18T03:31:13;46.63;;;25.03;;
14096;SDS011;7125;48.106;11.544;2022-12-18T03:33:41;41.73;;;23.03;;
14096;SDS011;7125;48.106;11.544;2022-12-18T03:36:13;43.90;;;23.37;;
14096;SDS011;7125;48.106;11.544;2022-12-18T03:38:40;41.47;;;21.83;;
14096;SDS011;7125;48.106;11.544;2022-12-18T03:41:10;44.83;;;24.10;;
14096;SDS011;7125;48.106;11.544;2022-12-18T03:44:03;42.73;;;22.87;;
14096;SDS011;7125;48.106;11.544;2022-12-18T03:46:45;41.00;;;21.70;;
14096;SDS011;7125;48.106;11.544;2022-12-18T03:49:18;34.30;;;20.70;;
14096;SDS011;7125;48.106;11.544;2022-12-18T03:51:54;45.60;;;25.00;;
14096;SDS011;7125;48.106;11.544;2022-12-18T03:54:27;44.03;;;22.33;;
14096;SDS011;7125;48.106;11.544;2022-12-18T03:57:04;42.70;;;23.43;;
14096;SDS011;7125;48.106;11.544;2022-12-18T03:59:35;42.47;;;23.57;;
14096;SDS011;7125;48.106;11.544;2022-12-18T04:02:06;37.63;;;23.47;;
14096;SDS011;7125;48.106;11.544;2022-12-18T04:04:37;41.07;;;24.40;;
14096;SDS011;7125;48.106;11.544;2022-12-18T04:07:05;48.27;;;26.73;;
14096;SDS011;7125;48.106;11.544;2022-12-18T04:09:36;43.27;;;24.83;;
14096;SDS011;7125;48.106;11.544;2022-12-18T04:12:06;45.63;;;22.67;;
14096;SDS011;7125;48.106;11.544;2022-12-18T04:14:35;40.37;;;23.07;;
14096;SDS011;7125;48.106;11.544;2022-12-18T04:17:06;38.57;;;23.23;;
14096;SDS011;7125;48.106;11.544;2022-12-18T04:19:34;44.53;;;22.80;;
14096;SDS011;7125;48.106;11.544;2022-12-18T04:22:02;49.63;;;24.53;;
14096;SDS011;7125;48.106;11.544;2022-12-18T04:24:35;43.03;;;24.43;;
14096;SDS011;7125;48.106;11.544;2022-12-18T04:27:09;41.90;;;24.53;;
14096;SDS011;7125;48.106;11.544;2022-12-18T04:29:45;41.87;;;24.73;;
14096;SDS011;7125;48.106;11.544;2022-12-18T04:32:11;39.83;;;23.47;;
14096;SDS011;7125;48.106;11.544;2022-12-18T04:34:41;46.53;;;24.07;;
14096;SDS011;7125;48.106;11.544;2022-12-18T04:37:08;42.00;;;24.33;;
14096;SDS011;7125;48.106;11.544;2022-12-18T04:39:36;46.57;;;25.40;;
14096;SDS011;7125;48.106;11.544;2022-12-18T04:42:09;41.07;;;22.43;;
14096;SDS011;7125;48.106;11.544;2022-12-18T04:44:36;43.63;;;26.00;;
14096;SDS011;7125;48.106;11.544;2022-12-18T04:47:04;37.57;;;22.30;;
14096;SDS011;7125;48.106;11.544;2022-12-18T04:49:32;42.07;;;24.43;;
14096;SDS011;7125;48.106;11.544;2022-12-18T04:51:59;44.03;;;22.57;;
14096;SDS011;7125;48.106;11.544;2022-12-18T04:54:27;44.37;;;24.60;;
14096;SDS011;7125;48.106;11.544;2022-12-18T04:56:54;43.30;;;23.77;;
14096;SDS011;7125;48.106;11.544;2022-12-18T04:59:21;45.97;;;21.73;;
14096;SDS011;7125;48.106;11.544;2022-12-18T05:01:50;40.20;;;23.23;;
14096;SDS011;7125;48.106;11.544;2022-12-18T05:04:20;42.57;;;24.13;;
14096;SDS011;7125;48.106;11.544;2022-12-18T05:06:47;45.27;;;25.63;;
14096;SDS011;7125;48.106;11.544;2022-12-18T05:09:14;44.97;;;24.53;;
14096;SDS011;7125;48.106;11.544;2022-12-18T05:11:41;41.43;;;24.93;;
14096;SDS011;7125;48.106;11.544;2022-12-18T05:14:08;40.20;;;24.03;;
14096;SDS011;7125;48.106;11.544;2022-12-18T05:16:35;40.23;;;23.00;;
14096;SDS011;7125;48.106;11.544;2022-12-18T05:19:02;41.33;;;22.40;;
14096;SDS011;7125;48.106;11.544;2022-12-18T05:21:30;38.60;;;21.73;;
14096;SDS011;7125;48.106;11.544;2022-12-18T05:23:57;36.93;;;20.90;;
14096;SDS011;7125;48.106;11.544;2022-12-18T05:26:23;40.23;;;20.13;;
14096;SDS011;7125;48.106;11.544;2022-12-18T05:28:50;32.87;;;18.77;;
14096;SDS011;7125;48.106;11.544;2022-12-18T05:31:17;33.17;;;19.97;;
14096;SDS011;7125;48.106;11.544;2022-12-18T05:33:44;40.20;;;22.83;;
14096;SDS011;7125;48.106;11.544;2022-12-18T05:36:11;36.03;;;21.40;;
14096;SDS011;7125;48.106;11.544;2022-12-18T05:38:39;38.57;;;20.57;;
14096;SDS011;7125;48.106;11.544;2022-12-18T05:41:06;42.27;;;23.47;;
14096;SDS011;7125;48.106;11.544;2022-12-18T05:43:34;40.03;;;24.03;;
14096;SDS011;7125;48.106;11.544;2022-12-18T05:46:05;32.83;;;19.47;;
14096;SDS011;7125;48.106;11.544;2022-12-18T05:48:32;34.23;;;20.53;;
14096;SDS011;7125;48.106;11.544;2022-12-18T05:51:03;35.00;;;20.00;;
14096;SDS011;7125;48.106;11.544;2022-12-18T05:53:32;37.77;;;19.80;;
14096;SDS011;7125;48.106;11.544;2022-12-18T05:56:01;35.83;;;20.97;;
14096;SDS011;7125;48.106;11.544;2022-12-18T05:58:29;40.23;;;21.67;;
14096;SDS011;7125;48.106;11.544;2022-12-18T06:00:57;36.47;;;21.53;;
14096;SDS011;7125;48.106;11.544;2022-12-18T06:03:31;36.50;;;20.37;;
14096;SDS011;7125;48.106;11.544;2022-12-18T06:05:58;33.10;;;20.47;;
14096;SDS011;7125;48.106;11.544;2022-12-18T06:08:25;26.20;;;18.07;;
14096;SDS011;7125;48.106;11.544;2022-12-18T06:10:52;32.70;;;18.90;;
14096;SDS011;7125;48.106;11.544;2022-12-18T06:13:20;35.20;;;21.03;;
14096;SDS011;7125;48.106;11.544;2022-12-18T06:15:47;36.37;;;21.87;;
14096;SDS011;7125;48.106;11.544;2022-12-18T06:18:14;41.93;;;20.27;;
14096;SDS011;7125;48.106;11.544;2022-12-18T06:20:41;32.73;;;20.53;;
14096;SDS011;7125;48.106;11.544;2022-12-18T06:23:08;38.23;;;22.03;;
14096;SDS011;7125;48.106;11.544;2022-12-18T06:25:37;35.80;;;20.80;;
14096;SDS011;7125;48.106;11.544;2022-12-18T06:28:04;33.00;;;19.27;;
14096;SDS011;7125;48.106;11.544;2022-12-18T06:30:32;33.50;;;19.90;;
14096;SDS011;7125;48.106;11.544;2022-12-18T06:32:59;35.03;;;18.60;;
14096;SDS011;7125;48.106;11.544;2022-12-18T06:35:26;35.67;;;20.07;;
14096;SDS011;7125;48.106;11.544;2022-12-18T06:37:53;30.47;;;19.23;;
14096;SDS011;7125;48.106;11.544;2022-12-18T06:40:20;32.47;;;18.90;;
14096;SDS011;7125;48.106;11.544;2022-12-18T06:42:47;34.43;;;21.40;;
14096;SDS011;7125;48.106;11.544;2022-12-18T06:45:14;37.70;;;20.50;;
14096;SDS011;7125;48.106;11.544;2022-12-18T06:47:42;30.37;;;19.70;;
14096;SDS011;7125;48.106;11.544;2022-12-18T06:50:09;31.97;;;18.27;;
14096;SDS011;7125;48.106;11.544;2022-12-18T06:52:36;39.60;;;22.57;;
14096;SDS011;7125;48.106;11.544;2022-12-18T06:55:04;31.13;;;19.87;;
14096;SDS011;7125;48.106;11.544;2022-12-18T06:57:32;37.07;;;21.83;;
14096;SDS011;7125;48.106;11.544;2022-12-18T06:59:59;38.17;;;19.03;;
14096;SDS011;7125;48.106;11.544;2022-12-18T07:02:25;34.70;;;20.63;;
14096;SDS011;7125;48.106;11.544;2022-12-18T07:04:53;29.43;;;18.57;;
14096;SDS011;7125;48.106;11.544;2022-12-18T07:07:20;38.77;;;22.10;;
14096;SDS011;7125;48.106;11.544;2022-12-18T07:09:49;35.23;;;19.30;;
14096;SDS011;7125;48.106;11.544;2022-12-18T07:12:16;36.47;;;21.83;;
14096;SDS011;7125;48.106;11.544;2022-12-18T07:14:43;35.60;;;19.83;;
14096;SDS011;7125;48.106;11.544;2022-12-18T07:17:10;36.47;;;19.60;;
14096;SDS011;7125;48.106;11.544;2022-12-18T07:19:37;39.23;;;21.33;;
14096;SDS011;7125;48.106;11.544;2022-12-18T07:22:05;38.57;;;21.27;;
14096;SDS011;7125;48.106;11.544;2022-12-18T07:24:35;35.80;;;21.33;;
14096;SDS011;7125;48.106;11.544;2022-12-18T07:27:02;36.17;;;20.20;;
14096;SDS011;7125;48.106;11.544;2022-12-18T07:29:29;38.07;;;22.10;;
14096;SDS011;7125;48.106;11.544;2022-12-18T07:31:56;35.23;;;21.10;;
14096;SDS011;7125;48.106;11.544;2022-12-18T07:34:23;33.83;;;21.00;;
14096;SDS011;7125;48.106;11.544;2022-12-18T07:36:50;34.40;;;20.63;;
14096;SDS011;7125;48.106;11.544;2022-12-18T07:39:18;33.67;;;20.40;;
14096;SDS011;7125;48.106;11.544;2022-12-18T07:41:45;36.20;;;21.53;;
14096;SDS011;7125;48.106;11.544;2022-12-18T07:44:32;36.53;;;19.50;;
14096;SDS011;7125;48.106;11.544;2022-12-18T07:46:58;33.07;;;19.93;;
14096;SDS011;7125;48.106;11.544;2022-12-18T07:49:25;30.83;;;19.53;;
14096;SDS011;7125;48.106;11.544;2022-12-18T07:51:53;33.53;;;20.63;;
14096;SDS011;7125;48.106;11.544;2022-12-18T07:54:22;39.57;;;20.17;;
14096;SDS011;7125;48.106;11.544;2022-12-18T07:56:49;34.30;;;20.20;;
14096;SDS011;7125;48.106;11.544;2022-12-18T07:59:16;33.47;;;19.87;;
14096;SDS011;7125;48.106;11.544;2022-12-18T08:01:43;33.50;;;18.97;;
14096;SDS011;7125;48.106;11.544;2022-12-18T08:04:11;34.37;;;21.00;;
14096;SDS011;7125;48.106;11.544;2022-12-18T08:06:37;39.83;;;21.27;;
14096;SDS011;7125;48.106;11.544;2022-12-18T08:09:04;30.70;;;20.77;;
14096;SDS011;7125;48.106;11.544;2022-12-18T08:11:34;34.43;;;20.27;;
14096;SDS011;7125;48.106;11.544;2022-12-18T08:14:01;35.03;;;20.70;;
14096;SDS011;7125;48.106;11.544;2022-12-18T08:16:28;33.53;;;19.60;;
14096;SDS011;7125;48.106;11.544;2022-12-18T08:18:55;33.20;;;19.40;;
14096;SDS011;7125;48.106;11.544;2022-12-18T08:21:23;33.77;;;18.83;;
14096;SDS011;7125;48.106;11.544;2022-12-18T08:23:53;31.43;;;19.43;;
14096;SDS011;7125;48.106;11.544;2022-12-18T08:26:21;36.03;;;20.43;;
14096;SDS011;7125;48.106;11.544;2022-12-18T08:28:50;30.67;;;20.33;;
14096;SDS011;7125;48.106;11.544;2022-12-18T08:31:19;30.53;;;19.33;;
14096;SDS011;7125;48.106;11.544;2022-12-18T08:33:47;35.37;;;19.10;;
14096;SDS011;7125;48.106;11.544;2022-12-18T08:36:15;30.20;;;19.03;;
14096;SDS011;7125;48.106;11.544;2022-12-18T08:38:42;33.07;;;19.17;;
14096;SDS011;7125;48.106;11.544;2022-12-18T08:41:10;32.83;;;19.90;;
14096;SDS011;7125;48.106;11.544;2022-12-18T08:43:38;33.03;;;20.33;;
14096;SDS011;7125;48.106;11.544;2022-12-18T08:46:25;32.40;;;19.03;;
14096;SDS011;7125;48.106;11.544;2022-12-18T08:48:53;33.37;;;18.63;;
14096;SDS011;7125;48.106;11.544;2022-12-18T08:51:21;29.77;;;18.03;;
14096;SDS011;7125;48.106;11.544;2022-12-18T08:53:48;34.77;;;17.47;;
14096;SDS011;7125;48.106;11.544;2022-12-18T08:56:15;32.63;;;19.07;;
14096;SDS011;7125;48.106;11.544;2022-12-18T08:58:43;28.97;;;17.17;;
14096;SDS011;7125;48.106;11.544;2022-12-18T09:01:11;28.10;;;15.87;;
14096;SDS011;7125;48.106;11.544;2022-12-18T09:03:40;28.73;;;17.40;;
14096;SDS011;7125;48.106;11.544;2022-12-18T09:06:07;30.87;;;17.47;;
14096;SDS011;7125;48.106;11.544;2022-12-18T09:08:34;34.00;;;17.30;;
14096;SDS011;7125;48.106;11.544;2022-12-18T09:11:01;27.30;;;16.77;;
14096;SDS011;7125;48.106;11.544;2022-12-18T09:13:29;33.20;;;16.23;;
14096;SDS011;7125;48.106;11.544;2022-12-18T09:15:56;30.60;;;19.13;;
14096;SDS011;7125;48.106;11.544;2022-12-18T09:18:23;29.73;;;16.83;;
14096;SDS011;7125;48.106;11.544;2022-12-18T09:20:52;28.93;;;15.50;;
14096;SDS011;7125;48.106;11.544;2022-12-18T09:23:19;29.97;;;16.20;;
14096;SDS011;7125;48.106;11.544;2022-12-18T09:25:46;30.17;;;18.00;;
14096;SDS011;7125;48.106;11.544;2022-12-18T09:28:14;34.53;;;17.97;;
14096;SDS011;7125;48.106;11.544;2022-12-18T09:30:44;31.37;;;18.23;;
14096;SDS011;7125;48.106;11.544;2022-12-18T09:33:13;30.30;;;16.87;;
14096;SDS011;7125;48.106;11.544;2022-12-18T09:35:41;35.53;;;19.37;;
14096;SDS011;7125;48.106;11.544;2022-12-18T09:38:11;31.10;;;18.33;;
14096;SDS011;7125;48.106;11.544;2022-12-18T09:40:40;31.93;;;18.17;;
14096;SDS011;7125;48.106;11.544;2022-12-18T09:43:12;30.50;;;18.17;;
14096;SDS011;7125;48.106;11.544;2022-12-18T09:45:44;30.47;;;17.33;;
14096;SDS011;7125;48.106;11.544;2022-12-18T09:48:15;28.60;;;16.70;;
14096;SDS011;7125;48.106;11.544;2022-12-18T09:50:48;31.00;;;15.67;;
14096;SDS011;7125;48.106;11.544;2022-12-18T09:53:19;27.93;;;16.33;;
14096;SDS011;7125;48.106;11.544;2022-12-18T09:55:48;28.30;;;15.30;;
14096;SDS011;7125;48.106;11.544;2022-12-18T09:58:19;40.27;;;20.40;;
14096;SDS011;7125;48.106;11.544;2022-12-18T10:00:52;32.47;;;18.80;;
14096;SDS011;7125;48.106;11.544;2022-12-18T10:03:19;37.17;;;23.00;;
14096;SDS011;7125;48.106;11.544;2022-12-18T10:05:50;32.70;;;19.90;;
14096;SDS011;7125;48.106;11.544;2022-12-18T10:08:32;26.40;;;17.50;;
14096;SDS011;7125;48.106;11.544;2022-12-18T10:11:12;29.47;;;18.40;;
14096;SDS011;7125;48.106;11.544;2022-12-18T10:13:49;31.97;;;17.53;;
14096;SDS011;7125;48.106;11.544;2022-12-18T10:16:22;31.63;;;18.90;;
14096;SDS011;7125;48.106;11.544;2022-12-18T10:19:02;27.13;;;15.00;;
14096;SDS011;7125;48.106;11.544;2022-12-18T10:21:45;30.00;;;17.63;;
14096;SDS011;7125;48.106;11.544;2022-12-18T10:24:20;25.27;;;16.23;;
14096;SDS011;7125;48.106;11.544;2022-12-18T10:26:55;27.00;;;14.73;;
14096;SDS011;7125;48.106;11.544;2022-12-18T10:29:26;23.87;;;15.83;;
14096;SDS011;7125;48.106;11.544;2022-12-18T10:31:53;30.77;;;18.20;;
14096;SDS011;7125;48.106;11.544;2022-12-18T10:34:20;27.33;;;17.67;;
14096;SDS011;7125;48.106;11.544;2022-12-18T10:36:47;28.67;;;16.60;;
14096;SDS011;7125;48.106;11.544;2022-12-18T10:39:15;29.13;;;17.07;;
14096;SDS011;7125;48.106;11.544;2022-12-18T10:41:44;32.57;;;18.77;;
14096;SDS011;7125;48.106;11.544;2022-12-18T10:44:14;24.50;;;16.07;;
14096;SDS011;7125;48.106;11.544;2022-12-18T10:46:44;26.37;;;16.40;;
14096;SDS011;7125;48.106;11.544;2022-12-18T10:49:18;31.50;;;17.50;;
14096;SDS011;7125;48.106;11.544;2022-12-18T10:51:48;27.70;;;16.87;;
14096;SDS011;7125;48.106;11.544;2022-12-18T10:54:16;32.47;;;18.57;;
14096;SDS011;7125;48.106;11.544;2022-12-18T10:56:45;30.10;;;16.27;;
14096;SDS011;7125;48.106;11.544;2022-12-18T10:59:13;23.37;;;16.03;;
14096;SDS011;7125;48.106;11.544;2022-12-18T11:01:46;30.20;;;17.13;;
14096;SDS011;7125;48.106;11.544;2022-12-18T11:04:17;28.00;;;16.53;;
14096;SDS011;7125;48.106;11.544;2022-12-18T11:06:53;27.33;;;15.63;;
14096;SDS011;7125;48.106;11.544;2022-12-18T11:09:22;26.00;;;17.30;;
14096;SDS011;7125;48.106;11.544;2022-12-18T11:11:52;25.73;;;16.53;;
14096;SDS011;7125;48.106;11.544;2022-12-18T11:14:21;29.33;;;18.13;;
14096;SDS011;7125;48.106;11.544;2022-12-18T11:16:50;28.63;;;18.00;;
14096;SDS011;7125;48.106;11.544;2022-12-18T11:19:24;24.67;;;15.23;;
14096;SDS011;7125;48.106;11.544;2022-12-18T11:21:56;27.83;;;17.00;;
14096;SDS011;7125;48.106;11.544;2022-12-18T11:24:25;27.83;;;15.63;;
14096;SDS011;7125;48.106;11.544;2022-12-18T11:26:56;26.00;;;15.70;;
14096;SDS011;7125;48.106;11.544;2022-12-18T11:29:28;25.43;;;15.93;;
14096;SDS011;7125;48.106;11.544;2022-12-18T11:32:20;27.57;;;16.13;;
14096;SDS011;7125;48.106;11.544;2022-12-18T11:35:03;29.13;;;15.90;;
14096;SDS011;7125;48.106;11.544;2022-12-18T11:37:37;23.40;;;15.17;;
14096;SDS011;7125;48.106;11.544;2022-12-18T11:40:07;27.90;;;17.57;;
14096;SDS011;7125;48.106;11.544;2022-12-18T11:42:41;26.13;;;16.40;;
14096;SDS011;7125;48.106;11.544;2022-12-18T11:45:21;29.47;;;16.63;;
14096;SDS011;7125;48.106;11.544;2022-12-18T11:47:55;28.47;;;17.50;;
14096;SDS011;7125;48.106;11.544;2022-12-18T11:50:28;26.80;;;17.17;;
14096;SDS011;7125;48.106;11.544;2022-12-18T11:53:00;28.50;;;17.07;;
14096;SDS011;7125;48.106;11.544;2022-12-18T11:55:37;23.27;;;13.67;;
14096;SDS011;7125;48.106;11.544;2022-12-18T11:58:11;27.00;;;15.93;;
14096;SDS011;7125;48.106;11.544;2022-12-18T12:00:42;22.97;;;15.67;;
14096;SDS011;7125;48.106;11.544;2022-12-18T12:03:24;29.20;;;17.60;;
14096;SDS011;7125;48.106;11.544;2022-12-18T12:06:17;24.70;;;14.77;;
14096;SDS011;7125;48.106;11.544;2022-12-18T12:08:57;28.77;;;16.17;;
14096;SDS011;7125;48.106;11.544;2022-12-18T12:11:34;24.93;;;15.23;;
14096;SDS011;7125;48.106;11.544;2022-12-18T12:14:13;23.27;;;14.87;;
14096;SDS011;7125;48.106;11.544;2022-12-18T12:16:54;29.07;;;16.97;;
14096;SDS011;7125;48.106;11.544;2022-12-18T12:19:31;28.43;;;16.90;;
14096;SDS011;7125;48.106;11.544;2022-12-18T12:22:07;32.30;;;17.17;;
14096;SDS011;7125;48.106;11.544;2022-12-18T12:24:45;31.00;;;17.20;;
14096;SDS011;7125;48.106;11.544;2022-12-18T12:27:20;24.50;;;15.00;;
14096;SDS011;7125;48.106;11.544;2022-12-18T12:30:00;34.17;;;18.80;;
14096;SDS011;7125;48.106;11.544;2022-12-18T12:32:35;24.30;;;16.47;;
14096;SDS011;7125;48.106;11.544;2022-12-18T12:35:14;26.87;;;18.10;;
14096;SDS011;7125;48.106;11.544;2022-12-18T12:37:54;26.40;;;15.50;;
14096;SDS011;7125;48.106;11.544;2022-12-18T12:40:30;28.00;;;16.87;;
14096;SDS011;7125;48.106;11.544;2022-12-18T12:43:01;28.53;;;16.83;;
14096;SDS011;7125;48.106;11.544;2022-12-18T12:45:40;29.83;;;16.37;;
14096;SDS011;7125;48.106;11.544;2022-12-18T12:48:16;26.90;;;16.47;;
14096;SDS011;7125;48.106;11.544;2022-12-18T12:50:47;23.87;;;15.10;;
14096;SDS011;7125;48.106;11.544;2022-12-18T12:53:20;25.67;;;15.60;;
14096;SDS011;7125;48.106;11.544;2022-12-18T12:55:53;23.60;;;15.77;;
14096;SDS011;7125;48.106;11.544;2022-12-18T12:58:23;26.37;;;15.70;;
14096;SDS011;7125;48.106;11.544;2022-12-18T13:01:01;31.30;;;17.40;;
14096;SDS011;7125;48.106;11.544;2022-12-18T13:03:41;29.17;;;16.73;;
14096;SDS011;7125;48.106;11.544;2022-12-18T13:06:14;26.07;;;18.30;;
14096;SDS011;7125;48.106;11.544;2022-12-18T13:08:52;28.77;;;18.17;;
14096;SDS011;7125;48.106;11.544;2022-12-18T13:11:31;21.30;;;14.97;;
14096;SDS011;7125;48.106;11.544;2022-12-18T13:14:23;26.30;;;16.80;;
14096;SDS011;7125;48.106;11.544;2022-12-18T13:20:03;24.63;;;13.83;;
14096;SDS011;7125;48.106;11.544;2022-12-18T13:22:38;24.37;;;15.77;;
14096;SDS011;7125;48.106;11.544;2022-12-18T13:27:59;27.40;;;15.37;;
14096;SDS011;7125;48.106;11.544;2022-12-18T13:30:41;29.17;;;16.00;;
14096;SDS011;7125;48.106;11.544;2022-12-18T13:36:14;30.13;;;16.37;;
14096;SDS011;7125;48.106;11.544;2022-12-18T13:38:43;24.50;;;15.13;;
14096;SDS011;7125;48.106;11.544;2022-12-18T13:41:23;23.93;;;15.03;;
14096;SDS011;7125;48.106;11.544;2022-12-18T13:43:53;26.77;;;14.50;;
14096;SDS011;7125;48.106;11.544;2022-12-18T13:46:24;25.40;;;17.33;;
14096;SDS011;7125;48.106;11.544;2022-12-18T13:48:55;24.27;;;14.60;;
14096;SDS011;7125;48.106;11.544;2022-12-18T13:51:27;24.43;;;14.70;;
14096;SDS011;7125;48.106;11.544;2022-12-18T13:53:59;24.13;;;14.67;;
14096;SDS011;7125;48.106;11.544;2022-12-18T13:56:28;28.13;;;15.80;;
14096;SDS011;7125;48.106;11.544;2022-12-18T13:59:03;32.23;;;17.67;;
14096;SDS011;7125;48.106;11.544;2022-12-18T14:01:41;26.73;;;16.27;;
14096;SDS011;7125;48.106;11.544;2022-12-18T14:04:09;29.93;;;18.13;;
14096;SDS011;7125;48.106;11.544;2022-12-18T14:06:38;27.70;;;18.40;;
14096;SDS011;7125;48.106;11.544;2022-12-18T14:09:10;31.17;;;15.67;;
14096;SDS011;7125;48.106;11.544;2022-12-18T14:11:45;26.93;;;15.10;;
14096;SDS011;7125;48.106;11.544;2022-12-18T14:14:14;29.33;;;17.10;;
14096;SDS011;7125;48.106;11.544;2022-12-18T14:16:42;26.73;;;15.33;;
14096;SDS011;7125;48.106;11.544;2022-12-18T14:19:10;31.00;;;17.20;;
14096;SDS011;7125;48.106;11.544;2022-12-18T14:21:41;31.33;;;16.57;;
14096;SDS011;7125;48.106;11.544;2022-12-18T14:24:14;22.77;;;14.47;;
14096;SDS011;7125;48.106;11.544;2022-12-18T14:26:42;27.03;;;16.50;;
14096;SDS011;7125;48.106;11.544;2022-12-18T14:29:23;32.07;;;16.70;;
14096;SDS011;7125;48.106;11.544;2022-12-18T14:32:04;27.10;;;16.13;;
14096;SDS011;7125;48.106;11.544;2022-12-18T14:34:32;24.23;;;15.30;;
14096;SDS011;7125;48.106;11.544;2022-12-18T14:37:00;24.57;;;14.83;;
14096;SDS011;7125;48.106;11.544;2022-12-18T14:39:28;27.40;;;17.03;;
14096;SDS011;7125;48.106;11.544;2022-12-18T14:41:54;31.07;;;17.40;;
14096;SDS011;7125;48.106;11.544;2022-12-18T14:44:22;28.20;;;16.90;;
14096;SDS011;7125;48.106;11.544;2022-12-18T14:46:49;32.20;;;17.97;;
14096;SDS011;7125;48.106;11.544;2022-12-18T14:49:21;29.43;;;16.30;;
14096;SDS011;7125;48.106;11.544;2022-12-18T14:51:54;28.63;;;17.40;;